sensor_id;sensor_type;location;lat;lon;timestamp;pressure;altitude;pressure_sealevel;temperature;humidity
80648;BME280;70012;0.000;0.000;2023-08-07T00:01:13;100389.44;;;12.16;84.48
80648;BME280;70012;0.000;0.000;2023-08-07T00:03:40;100386.66;;;12.11;84.44
80648;BME280;70012;0.000;0.000;2023-08-07T00:06:08;100377.34;;;12.12;84.11
80648;BME280;70012;0.000;0.000;2023-08-07T00:08:34;100383.97;;;12.16;83.62
80648;BME280;70012;0.000;0.000;2023-08-07T00:11:09;100381.22;;;12.16;83.78
80648;BME280;70012;0.000;0.000;2023-08-07T00:13:36;100375.16;;;12.14;83.71
80648;BME280;70012;0.000;0.000;2023-08-07T00:16:03;100374.66;;;12.17;83.17
80648;BME280;70012;0.000;0.000;2023-08-07T00:18:30;100371.88;;;12.12;83.14
80648;BME280;70012;0.000;0.000;2023-08-07T00:20:57;100373.53;;;12.13;82.89
80648;BME280;70012;0.000;0.000;2023-08-07T00:23:23;100377.38;;;12.17;82.92
80648;BME280;70012;0.000;0.000;2023-08-07T00:25:50;100371.31;;;12.15;82.81
80648;BME280;70012;0.000;0.000;2023-08-07T00:28:17;100382.31;;;12.15;82.93
80648;BME280;70012;0.000;0.000;2023-08-07T00:30:44;100383.97;;;12.16;82.88
80648;BME280;70012;0.000;0.000;2023-08-07T00:33:10;100372.69;;;12.13;82.82
80648;BME280;70012;0.000;0.000;2023-08-07T00:35:37;100379.00;;;12.13;82.96
80648;BME280;70012;0.000;0.000;2023-08-07T00:38:05;100378.47;;;12.16;82.94
80648;BME280;70012;0.000;0.000;2023-08-07T00:40:38;100375.16;;;12.14;82.96
80648;BME280;70012;0.000;0.000;2023-08-07T00:43:06;100392.78;;;12.19;82.77
80648;BME280;70012;0.000;0.000;2023-08-07T00:45:36;100385.09;;;12.21;82.99
80648;BME280;70012;0.000;0.000;2023-08-07T00:48:04;100375.16;;;12.14;83.15
80648;BME280;70012;0.000;0.000;2023-08-07T00:50:32;100380.13;;;12.17;83.07
80648;BME280;70012;0.000;0.000;2023-08-07T00:53:12;100387.56;;;12.17;83.19
80648;BME280;70012;0.000;0.000;2023-08-07T00:55:40;100392.75;;;12.13;83.23
80648;BME280;70012;0.000;0.000;2023-08-07T00:58:07;100387.28;;;12.19;82.83
80648;BME280;70012;0.000;0.000;2023-08-07T01:00:33;100396.31;;;12.19;83.29
80648;BME280;70012;0.000;0.000;2023-08-07T01:03:00;100397.69;;;12.16;83.20
80648;BME280;70012;0.000;0.000;2023-08-07T01:05:28;100390.81;;;12.14;83.29
80648;BME280;70012;0.000;0.000;2023-08-07T01:07:56;100399.06;;;12.19;82.81
80648;BME280;70012;0.000;0.000;2023-08-07T01:13:29;100405.41;;;12.20;82.69
80648;BME280;70012;0.000;0.000;2023-08-07T01:16:09;100407.06;;;12.21;82.45
80648;BME280;70012;0.000;0.000;2023-08-07T01:18:37;100407.56;;;12.17;82.55
80648;BME280;70012;0.000;0.000;2023-08-07T01:21:05;100409.75;;;12.15;82.16
80648;BME280;70012;0.000;0.000;2023-08-07T01:23:32;100394.94;;;12.16;81.82
80648;BME280;70012;0.000;0.000;2023-08-07T01:25:58;100409.81;;;12.21;82.32
80648;BME280;70012;0.000;0.000;2023-08-07T01:28:55;100402.09;;;12.17;82.17
80648;BME280;70012;0.000;0.000;2023-08-07T01:31:26;100398.78;;;12.15;82.23
80648;BME280;70012;0.000;0.000;2023-08-07T01:34:04;100386.19;;;12.20;81.82
80648;BME280;70012;0.000;0.000;2023-08-07T01:36:31;100391.69;;;12.20;82.36
80648;BME280;70012;0.000;0.000;2023-08-07T01:38:59;100397.09;;;12.14;82.43
80648;BME280;70012;0.000;0.000;2023-08-07T01:41:27;100389.44;;;12.16;82.48
80648;BME280;70012;0.000;0.000;2023-08-07T01:43:54;100383.38;;;12.14;82.18
80648;BME280;70012;0.000;0.000;2023-08-07T01:46:21;100393.28;;;12.15;82.03
80648;BME280;70012;0.000;0.000;2023-08-07T01:48:47;100402.09;;;12.17;82.15
80648;BME280;70012;0.000;0.000;2023-08-07T01:51:14;100410.03;;;12.19;81.88
80648;BME280;70012;0.000;0.000;2023-08-07T01:53:40;100386.09;;;12.09;81.85
80648;BME280;70012;0.000;0.000;2023-08-07T01:56:07;100405.41;;;12.20;81.39
80648;BME280;70012;0.000;0.000;2023-08-07T01:58:34;100394.44;;;12.20;81.65
80648;BME280;70012;0.000;0.000;2023-08-07T02:01:00;100396.91;;;12.21;81.60
80648;BME280;70012;0.000;0.000;2023-08-07T02:03:27;100400.47;;;12.22;81.55
80648;BME280;70012;0.000;0.000;2023-08-07T02:05:54;100399.38;;;12.23;81.50
80648;BME280;70012;0.000;0.000;2023-08-07T02:08:21;100398.25;;;12.19;81.36
80648;BME280;70012;0.000;0.000;2023-08-07T02:10:48;100415.03;;;12.22;81.61
80648;BME280;70012;0.000;0.000;2023-08-07T02:13:15;100393.28;;;12.15;82.03
80648;BME280;70012;0.000;0.000;2023-08-07T02:15:42;100405.34;;;12.14;82.88
80648;BME280;70012;0.000;0.000;2023-08-07T02:18:08;100420.72;;;12.15;83.09
80648;BME280;70012;0.000;0.000;2023-08-07T02:20:35;100419.59;;;12.11;83.27
80648;BME280;70012;0.000;0.000;2023-08-07T02:23:02;100422.63;;;12.10;83.69
80648;BME280;70012;0.000;0.000;2023-08-07T02:25:29;100406.97;;;12.10;83.54
80648;BME280;70012;0.000;0.000;2023-08-07T02:27:55;100419.31;;;12.08;83.44
80648;BME280;70012;0.000;0.000;2023-08-07T02:30:22;100419.50;;;12.01;83.58
80648;BME280;70012;0.000;0.000;2023-08-07T02:32:48;100431.63;;;12.05;83.16
80648;BME280;70012;0.000;0.000;2023-08-07T02:35:16;100415.66;;;12.02;83.15
80648;BME280;70012;0.000;0.000;2023-08-07T02:37:43;100407.84;;;11.89;82.94
80648;BME280;70012;0.000;0.000;2023-08-07T02:40:10;100434.34;;;12.00;83.39
80648;BME280;70012;0.000;0.000;2023-08-07T02:42:38;100439.28;;;12.03;83.15
80648;BME280;70012;0.000;0.000;2023-08-07T02:45:05;100423.06;;;11.96;82.82
80648;BME280;70012;0.000;0.000;2023-08-07T02:47:33;100419.22;;;11.97;82.40
80648;BME280;70012;0.000;0.000;2023-08-07T02:50:00;100435.47;;;12.04;82.75
80648;BME280;70012;0.000;0.000;2023-08-07T02:52:26;100428.31;;;12.03;82.67
80648;BME280;70012;0.000;0.000;2023-08-07T02:54:54;100426.66;;;12.02;82.27
80648;BME280;70012;0.000;0.000;2023-08-07T02:57:21;100428.31;;;12.03;82.25
80648;BME280;70012;0.000;0.000;2023-08-07T02:59:48;100441.25;;;12.08;81.96
80648;BME280;70012;0.000;0.000;2023-08-07T03:02:15;100423.88;;;11.97;82.11
80648;BME280;70012;0.000;0.000;2023-08-07T03:04:42;100419.22;;;11.97;81.90
80648;BME280;70012;0.000;0.000;2023-08-07T03:07:09;100434.34;;;12.00;81.76
80648;BME280;70012;0.000;0.000;2023-08-07T03:09:35;100424.47;;;12.04;81.89
80648;BME280;70012;0.000;0.000;2023-08-07T03:12:02;100448.38;;;12.04;81.92
80648;BME280;70012;0.000;0.000;2023-08-07T03:14:32;100428.31;;;12.03;81.66
80648;BME280;70012;0.000;0.000;2023-08-07T03:16:59;100432.44;;;12.06;81.71
80648;BME280;70012;0.000;0.000;2023-08-07T03:19:27;100437.63;;;12.02;81.73
80648;BME280;70012;0.000;0.000;2023-08-07T03:21:54;100427.50;;;12.03;81.75
80648;BME280;70012;0.000;0.000;2023-08-07T03:24:20;100433.28;;;12.06;81.95
80648;BME280;70012;0.000;0.000;2023-08-07T03:26:47;100443.72;;;12.09;82.20
80648;BME280;70012;0.000;0.000;2023-08-07T03:29:15;100404.66;;;11.97;82.03
80648;BME280;70012;0.000;0.000;2023-08-07T03:31:42;100432.44;;;12.06;82.85
80648;BME280;70012;0.000;0.000;2023-08-07T03:34:09;100440.94;;;12.04;82.81
80648;BME280;70012;0.000;0.000;2023-08-07T03:36:36;100435.47;;;12.04;83.15
80648;BME280;70012;0.000;0.000;2023-08-07T03:39:03;100441.44;;;12.01;83.33
80648;BME280;70012;0.000;0.000;2023-08-07T03:41:29;100442.47;;;11.95;83.23
80648;BME280;70012;0.000;0.000;2023-08-07T03:43:57;100445.56;;;11.98;83.92
80648;BME280;70012;0.000;0.000;2023-08-07T03:46:23;100448.50;;;11.92;84.37
80648;BME280;70012;0.000;0.000;2023-08-07T03:48:50;100450.97;;;11.93;83.93
80648;BME280;70012;0.000;0.000;2023-08-07T03:51:17;100454.75;;;11.87;84.06
80648;BME280;70012;0.000;0.000;2023-08-07T03:53:46;100447.09;;;11.89;84.13
80648;BME280;70012;0.000;0.000;2023-08-07T03:56:13;100451.19;;;11.87;84.21
80648;BME280;70012;0.000;0.000;2023-08-07T03:58:40;100455.84;;;11.86;84.24
80648;BME280;70012;0.000;0.000;2023-08-07T04:01:07;100456.69;;;11.87;84.78
80648;BME280;70012;0.000;0.000;2023-08-07T04:03:34;100451.91;;;11.77;84.65
80648;BME280;70012;0.000;0.000;2023-08-07T04:06:02;100462.63;;;11.78;84.97
80648;BME280;70012;0.000;0.000;2023-08-07T04:08:32;100467.03;;;11.79;85.20
80648;BME280;70012;0.000;0.000;2023-08-07T04:11:07;100469.19;;;11.77;85.29
80648;BME280;70012;0.000;0.000;2023-08-07T04:13:34;100472.69;;;11.73;86.03
80648;BME280;70012;0.000;0.000;2023-08-07T04:16:01;100461.41;;;11.69;86.09
80648;BME280;70012;0.000;0.000;2023-08-07T04:18:33;100473.47;;;11.68;86.38
80648;BME280;70012;0.000;0.000;2023-08-07T04:21:00;100472.91;;;11.66;86.52
80648;BME280;70012;0.000;0.000;2023-08-07T04:23:27;100480.56;;;11.64;86.80
80648;BME280;70012;0.000;0.000;2023-08-07T04:25:54;100471.22;;;11.60;87.02
80648;BME280;70012;0.000;0.000;2023-08-07T04:28:21;100466.81;;;11.59;86.82
80648;BME280;70012;0.000;0.000;2023-08-07T04:30:49;100467.88;;;11.58;86.98
80648;BME280;70012;0.000;0.000;2023-08-07T04:33:17;100475.28;;;11.57;86.62
80648;BME280;70012;0.000;0.000;2023-08-07T04:35:44;100486.56;;;11.61;86.54
80648;BME280;70012;0.000;0.000;2023-08-07T04:38:14;100473.94;;;11.60;86.50
80648;BME280;70012;0.000;0.000;2023-08-07T04:40:45;100473.94;;;11.60;86.36
80648;BME280;70012;0.000;0.000;2023-08-07T04:43:13;100478.91;;;11.63;86.22
80648;BME280;70012;0.000;0.000;2023-08-07T04:45:41;100472.84;;;11.61;85.54
80648;BME280;70012;0.000;0.000;2023-08-07T04:48:08;100475.34;;;11.62;85.39
80648;BME280;70012;0.000;0.000;2023-08-07T04:50:35;100463.47;;;11.57;85.35
80648;BME280;70012;0.000;0.000;2023-08-07T05:08:31;100488.75;;;11.86;83.76
80648;BME280;70012;0.000;0.000;2023-08-07T05:10:58;100474.47;;;11.84;83.27
80648;BME280;70012;0.000;0.000;2023-08-07T05:13:25;100483.06;;;11.93;83.06
80648;BME280;70012;0.000;0.000;2023-08-07T05:15:52;100486.91;;;11.92;82.93
80648;BME280;70012;0.000;0.000;2023-08-07T05:18:19;100470.13;;;11.88;83.26
80648;BME280;70012;0.000;0.000;2023-08-07T05:20:45;100472.59;;;11.90;82.15
80648;BME280;70012;0.000;0.000;2023-08-07T05:23:12;100481.72;;;11.95;82.48
80648;BME280;70012;0.000;0.000;2023-08-07T05:25:40;100484.97;;;11.92;82.32
80648;BME280;70012;0.000;0.000;2023-08-07T05:28:07;100478.75;;;11.97;81.69
80648;BME280;70012;0.000;0.000;2023-08-07T05:30:34;100478.53;;;12.04;81.92
80648;BME280;70012;0.000;0.000;2023-08-07T05:33:00;100471.91;;;11.99;81.34
80648;BME280;70012;0.000;0.000;2023-08-07T05:35:27;100473.06;;;12.04;81.49
80648;BME280;70012;0.000;0.000;2023-08-07T05:37:56;100481.59;;;12.07;81.63
80648;BME280;70012;0.000;0.000;2023-08-07T05:40:24;100483.81;;;12.10;81.68
80648;BME280;70012;0.000;0.000;2023-08-07T05:42:51;100480.78;;;12.12;81.22
80648;BME280;70012;0.000;0.000;2023-08-07T05:45:18;100483.31;;;12.13;81.15
80648;BME280;70012;0.000;0.000;2023-08-07T05:47:45;100487.66;;;12.14;80.52
80648;BME280;70012;0.000;0.000;2023-08-07T05:50:12;100472.81;;;12.10;80.48
80648;BME280;70012;0.000;0.000;2023-08-07T05:52:39;100486.91;;;12.19;80.26
80648;BME280;70012;0.000;0.000;2023-08-07T05:55:06;100495.41;;;12.17;80.19
80648;BME280;70012;0.000;0.000;2023-08-07T05:57:33;100491.03;;;12.22;80.03
80648;BME280;70012;0.000;0.000;2023-08-07T06:00:00;100486.97;;;12.24;79.66
80648;BME280;70012;0.000;0.000;2023-08-07T06:02:27;100493.84;;;12.27;79.35
80648;BME280;70012;0.000;0.000;2023-08-07T06:04:54;100492.69;;;12.23;79.59
80648;BME280;70012;0.000;0.000;2023-08-07T06:07:22;100500.47;;;12.31;79.65
80648;BME280;70012;0.000;0.000;2023-08-07T06:09:50;100490.00;;;12.28;79.57
80648;BME280;70012;0.000;0.000;2023-08-07T06:12:17;100498.78;;;12.30;79.18
80648;BME280;70012;0.000;0.000;2023-08-07T06:14:43;100500.47;;;12.31;79.18
80648;BME280;70012;0.000;0.000;2023-08-07T06:17:10;100498.28;;;12.33;78.94
80648;BME280;70012;0.000;0.000;2023-08-07T06:19:37;100503.78;;;12.33;78.84
80648;BME280;70012;0.000;0.000;2023-08-07T06:22:04;100504.28;;;12.30;78.94
80648;BME280;70012;0.000;0.000;2023-08-07T06:24:32;100500.75;;;12.35;78.27
80648;BME280;70012;0.000;0.000;2023-08-07T06:26:59;100508.69;;;12.31;78.77
80648;BME280;70012;0.000;0.000;2023-08-07T06:29:26;100505.13;;;12.30;79.32
80648;BME280;70012;0.000;0.000;2023-08-07T06:31:52;100514.22;;;12.36;79.91
80648;BME280;70012;0.000;0.000;2023-08-07T06:34:22;100513.59;;;12.29;80.00
80648;BME280;70012;0.000;0.000;2023-08-07T06:36:50;100518.00;;;12.30;80.14
80648;BME280;70012;0.000;0.000;2023-08-07T06:39:17;100521.00;;;12.23;81.03
80648;BME280;70012;0.000;0.000;2023-08-07T06:41:44;100531.66;;;12.20;81.18
80648;BME280;70012;0.000;0.000;2023-08-07T06:44:10;100540.97;;;12.19;81.78
80648;BME280;70012;0.000;0.000;2023-08-07T06:46:38;100536.53;;;12.12;81.92
80648;BME280;70012;0.000;0.000;2023-08-07T06:49:04;100539.81;;;12.14;82.63
80648;BME280;70012;0.000;0.000;2023-08-07T06:51:33;100533.72;;;12.07;83.22
80648;BME280;70012;0.000;0.000;2023-08-07T06:54:02;100541.03;;;11.96;84.05
80648;BME280;70012;0.000;0.000;2023-08-07T06:56:29;100534.66;;;11.96;83.79
80648;BME280;70012;0.000;0.000;2023-08-07T06:58:56;100547.34;;;11.97;84.21
80648;BME280;70012;0.000;0.000;2023-08-07T07:01:23;100547.75;;;11.89;84.53
80648;BME280;70012;0.000;0.000;2023-08-07T07:03:50;100558.81;;;11.94;84.50
80648;BME280;70012;0.000;0.000;2023-08-07T07:06:19;100551.06;;;11.91;85.09
80648;BME280;70012;0.000;0.000;2023-08-07T07:08:47;100561.56;;;11.94;84.83
80648;BME280;70012;0.000;0.000;2023-08-07T07:11:14;100560.91;;;11.87;84.61
80648;BME280;70012;0.000;0.000;2023-08-07T07:13:42;100559.25;;;11.85;85.00
80648;BME280;70012;0.000;0.000;2023-08-07T07:16:09;100570.88;;;11.93;84.64
80648;BME280;70012;0.000;0.000;2023-08-07T07:18:39;100568.03;;;11.88;84.88
80648;BME280;70012;0.000;0.000;2023-08-07T07:21:06;100571.38;;;11.90;84.98
80648;BME280;70012;0.000;0.000;2023-08-07T07:23:33;100558.09;;;11.81;84.69
80648;BME280;70012;0.000;0.000;2023-08-07T07:25:59;100576.84;;;11.90;84.42
80648;BME280;70012;0.000;0.000;2023-08-07T07:28:27;100580.19;;;11.92;84.51
80648;BME280;70012;0.000;0.000;2023-08-07T07:30:54;100587.31;;;11.93;84.63
80648;BME280;70012;0.000;0.000;2023-08-07T07:33:21;100590.63;;;11.95;84.18
80648;BME280;70012;0.000;0.000;2023-08-07T07:35:48;100590.78;;;12.05;84.75
80648;BME280;70012;0.000;0.000;2023-08-07T07:38:14;100586.44;;;12.09;84.00
80648;BME280;70012;0.000;0.000;2023-08-07T07:40:42;100586.97;;;12.06;83.88
80648;BME280;70012;0.000;0.000;2023-08-07T07:43:09;100584.25;;;12.11;83.75
80648;BME280;70012;0.000;0.000;2023-08-07T07:45:35;100589.78;;;12.16;83.82
80648;BME280;70012;0.000;0.000;2023-08-07T07:48:03;100577.75;;;12.17;83.64
80648;BME280;70012;0.000;0.000;2023-08-07T07:50:30;100583.53;;;12.21;83.18
80648;BME280;70012;0.000;0.000;2023-08-07T07:52:56;100601.44;;;12.29;83.36
80648;BME280;70012;0.000;0.000;2023-08-07T07:55:24;100604.28;;;12.34;83.28
80648;BME280;70012;0.000;0.000;2023-08-07T07:57:51;100602.38;;;12.40;82.70
80648;BME280;70012;0.000;0.000;2023-08-07T08:00:17;100614.72;;;12.37;82.33
80648;BME280;70012;0.000;0.000;2023-08-07T08:02:44;100606.22;;;12.39;82.42
80648;BME280;70012;0.000;0.000;2023-08-07T08:05:11;100612.09;;;12.47;82.55
80648;BME280;70012;0.000;0.000;2023-08-07T08:07:39;100617.03;;;12.51;82.35
80648;BME280;70012;0.000;0.000;2023-08-07T08:10:09;100630.31;;;12.59;82.40
80648;BME280;70012;0.000;0.000;2023-08-07T08:12:36;100629.22;;;12.60;82.73
80648;BME280;70012;0.000;0.000;2023-08-07T08:15:03;100649.28;;;12.60;83.44
80648;BME280;70012;0.000;0.000;2023-08-07T08:17:30;100634.19;;;12.63;83.45
80648;BME280;70012;0.000;0.000;2023-08-07T08:19:58;100640.00;;;12.67;83.03
80648;BME280;70012;0.000;0.000;2023-08-07T08:22:25;100629.00;;;12.67;81.97
80648;BME280;70012;0.000;0.000;2023-08-07T08:24:52;100621.59;;;12.67;81.64
80648;BME280;70012;0.000;0.000;2023-08-07T08:27:19;100639.25;;;12.76;80.71
80648;BME280;70012;0.000;0.000;2023-08-07T08:29:46;100632.69;;;12.77;80.78
80648;BME280;70012;0.000;0.000;2023-08-07T08:32:13;100620.06;;;12.81;80.32
80648;BME280;70012;0.000;0.000;2023-08-07T08:34:40;100634.47;;;12.94;79.67
80648;BME280;70012;0.000;0.000;2023-08-07T08:37:09;100630.09;;;12.98;79.01
80648;BME280;70012;0.000;0.000;2023-08-07T08:39:37;100641.16;;;13.08;79.38
80648;BME280;70012;0.000;0.000;2023-08-07T08:42:04;100638.50;;;13.19;79.05
80648;BME280;70012;0.000;0.000;2023-08-07T08:44:36;100645.44;;;13.26;78.80
80648;BME280;70012;0.000;0.000;2023-08-07T08:47:06;100660.06;;;13.37;78.07
80648;BME280;70012;0.000;0.000;2023-08-07T08:49:43;100651.38;;;13.45;77.93
80648;BME280;70012;0.000;0.000;2023-08-07T08:52:12;100650.81;;;13.49;77.27
80648;BME280;70012;0.000;0.000;2023-08-07T08:54:40;100657.22;;;13.59;77.24
80648;BME280;70012;0.000;0.000;2023-08-07T08:57:07;100654.22;;;13.61;77.20
80648;BME280;70012;0.000;0.000;2023-08-07T08:59:34;100638.25;;;13.58;76.38
80648;BME280;70012;0.000;0.000;2023-08-07T09:02:01;100665.84;;;13.73;76.08
80648;BME280;70012;0.000;0.000;2023-08-07T09:04:28;100660.88;;;13.75;74.86
80648;BME280;70012;0.000;0.000;2023-08-07T09:06:55;100664.28;;;13.88;75.16
80648;BME280;70012;0.000;0.000;2023-08-07T09:09:23;100654.94;;;13.94;74.81
80648;BME280;70012;0.000;0.000;2023-08-07T09:11:50;100642.28;;;13.98;74.59
80648;BME280;70012;0.000;0.000;2023-08-07T09:14:24;100649.25;;;14.16;73.56
80648;BME280;70012;0.000;0.000;2023-08-07T09:16:53;100661.34;;;14.20;73.56
80648;BME280;70012;0.000;0.000;2023-08-07T09:19:21;100665.78;;;14.27;73.45
80648;BME280;70012;0.000;0.000;2023-08-07T09:21:48;100662.78;;;14.28;72.23
80648;BME280;70012;0.000;0.000;2023-08-07T09:24:14;100676.00;;;14.36;72.85
80648;BME280;70012;0.000;0.000;2023-08-07T09:26:47;100666.66;;;14.43;72.36
80648;BME280;70012;0.000;0.000;2023-08-07T09:29:14;100678.81;;;14.52;72.14
80648;BME280;70012;0.000;0.000;2023-08-07T09:31:43;100683.22;;;14.58;71.79
80648;BME280;70012;0.000;0.000;2023-08-07T09:34:12;100684.66;;;14.71;71.89
80648;BME280;70012;0.000;0.000;2023-08-07T09:36:40;100688.81;;;14.73;71.04
80648;BME280;70012;0.000;0.000;2023-08-07T09:39:07;100695.41;;;14.72;69.35
80648;BME280;70012;0.000;0.000;2023-08-07T09:41:34;100700.91;;;14.72;70.28
80648;BME280;70012;0.000;0.000;2023-08-07T09:44:10;100694.84;;;14.76;70.60
80648;BME280;70012;0.000;0.000;2023-08-07T09:46:44;100719.69;;;14.81;71.70
80648;BME280;70012;0.000;0.000;2023-08-07T09:49:11;100703.69;;;14.67;71.48
80648;BME280;70012;0.000;0.000;2023-08-07T09:51:45;100716.88;;;14.65;72.13
80648;BME280;70012;0.000;0.000;2023-08-07T09:54:13;100711.94;;;14.72;73.44
80648;BME280;70012;0.000;0.000;2023-08-07T09:56:41;100710.28;;;14.71;74.64
80648;BME280;70012;0.000;0.000;2023-08-07T09:59:08;100712.22;;;14.76;74.09
80648;BME280;70012;0.000;0.000;2023-08-07T10:01:38;100718.56;;;14.77;72.66
80648;BME280;70012;0.000;0.000;2023-08-07T10:04:10;100719.13;;;14.79;71.80
80648;BME280;70012;0.000;0.000;2023-08-07T10:06:43;100723.53;;;14.80;72.07
80648;BME280;70012;0.000;0.000;2023-08-07T10:09:10;100726.56;;;14.78;71.46
80648;BME280;70012;0.000;0.000;2023-08-07T10:11:38;100744.22;;;14.82;71.63
80648;BME280;70012;0.000;0.000;2023-08-07T10:14:06;100754.38;;;14.71;73.13
80648;BME280;70012;0.000;0.000;2023-08-07T10:16:33;100728.41;;;14.62;73.17
80648;BME280;70012;0.000;0.000;2023-08-07T10:19:06;100725.16;;;14.70;74.05
80648;BME280;70012;0.000;0.000;2023-08-07T10:21:35;100735.66;;;14.89;72.43
80648;BME280;70012;0.000;0.000;2023-08-07T10:24:06;100728.25;;;15.15;72.43
80648;BME280;70012;0.000;0.000;2023-08-07T10:26:34;100729.91;;;15.42;70.55
80648;BME280;70012;0.000;0.000;2023-08-07T10:29:07;100731.56;;;15.53;68.83
80648;BME280;70012;0.000;0.000;2023-08-07T10:31:35;100719.09;;;15.77;68.08
80648;BME280;70012;0.000;0.000;2023-08-07T10:34:03;100721.06;;;15.92;66.54
80648;BME280;70012;0.000;0.000;2023-08-07T10:36:34;100716.25;;;16.18;66.33
80648;BME280;70012;0.000;0.000;2023-08-07T10:39:08;100730.03;;;16.33;65.41
80648;BME280;70012;0.000;0.000;2023-08-07T10:41:40;100727.78;;;16.41;63.63
80648;BME280;70012;0.000;0.000;2023-08-07T10:44:18;100729.19;;;16.28;63.00
80648;BME280;70012;0.000;0.000;2023-08-07T10:46:52;100731.66;;;16.40;64.35
80648;BME280;70012;0.000;0.000;2023-08-07T10:49:31;100748.97;;;16.56;64.86
80648;BME280;70012;0.000;0.000;2023-08-07T10:52:03;100729.44;;;16.87;65.50
80648;BME280;70012;0.000;0.000;2023-08-07T10:54:30;100721.59;;;17.09;64.25
80648;BME280;70012;0.000;0.000;2023-08-07T10:57:12;100728.38;;;17.27;61.88
80648;BME280;70012;0.000;0.000;2023-08-07T11:00:02;100742.25;;;17.22;60.22
80648;BME280;70012;0.000;0.000;2023-08-07T11:02:31;100735.16;;;17.06;61.15
80648;BME280;70012;0.000;0.000;2023-08-07T11:05:03;100732.72;;;16.99;61.75
80648;BME280;70012;0.000;0.000;2023-08-07T11:07:30;100736.53;;;17.08;62.37
80648;BME280;70012;0.000;0.000;2023-08-07T11:09:58;100736.72;;;17.17;61.73
80648;BME280;70012;0.000;0.000;2023-08-07T11:12:29;100747.53;;;17.19;59.96
80648;BME280;70012;0.000;0.000;2023-08-07T11:14:55;100741.00;;;17.39;58.01
80648;BME280;70012;0.000;0.000;2023-08-07T11:17:28;100751.50;;;17.71;58.22
80648;BME280;70012;0.000;0.000;2023-08-07T11:19:56;100753.75;;;17.99;57.35
80648;BME280;70012;0.000;0.000;2023-08-07T11:22:23;100747.91;;;18.24;56.65
80648;BME280;70012;0.000;0.000;2023-08-07T11:24:50;100745.56;;;18.56;56.43
80648;BME280;70012;0.000;0.000;2023-08-07T11:27:17;100743.28;;;18.82;54.88
80648;BME280;70012;0.000;0.000;2023-08-07T11:29:47;100738.63;;;18.97;54.04
80648;BME280;70012;0.000;0.000;2023-08-07T11:32:15;100743.19;;;18.87;52.67
80648;BME280;70012;0.000;0.000;2023-08-07T11:34:48;100732.41;;;18.86;53.09
80648;BME280;70012;0.000;0.000;2023-08-07T11:37:16;100737.00;;;18.96;53.91
80648;BME280;70012;0.000;0.000;2023-08-07T11:39:44;100725.28;;;18.99;52.85
80648;BME280;70012;0.000;0.000;2023-08-07T11:42:11;100741.03;;;19.23;53.16
80648;BME280;70012;0.000;0.000;2023-08-07T11:44:37;100733.31;;;19.19;51.09
80648;BME280;70012;0.000;0.000;2023-08-07T11:47:05;100726.81;;;18.91;51.11
80648;BME280;70012;0.000;0.000;2023-08-07T11:49:31;100722.34;;;18.90;52.49
80648;BME280;70012;0.000;0.000;2023-08-07T11:51:58;100740.19;;;19.22;51.84
80648;BME280;70012;0.000;0.000;2023-08-07T11:54:26;100750.41;;;19.60;52.49
80648;BME280;70012;0.000;0.000;2023-08-07T11:56:53;100730.69;;;19.75;48.98
80648;BME280;70012;0.000;0.000;2023-08-07T11:59:20;100730.88;;;19.65;48.67
80648;BME280;70012;0.000;0.000;2023-08-07T12:01:47;100730.25;;;19.68;48.62
80648;BME280;70012;0.000;0.000;2023-08-07T12:04:14;100737.13;;;19.90;48.96
80648;BME280;70012;0.000;0.000;2023-08-07T12:06:56;100740.34;;;19.78;49.32
80648;BME280;70012;0.000;0.000;2023-08-07T12:09:25;100730.56;;;19.66;48.90
80648;BME280;70012;0.000;0.000;2023-08-07T12:11:59;100729.63;;;19.71;47.20
80648;BME280;70012;0.000;0.000;2023-08-07T12:14:30;100731.56;;;19.90;46.37
80648;BME280;70012;0.000;0.000;2023-08-07T12:16:56;100733.94;;;20.10;46.32
80648;BME280;70012;0.000;0.000;2023-08-07T12:19:24;100738.34;;;20.39;46.08
80648;BME280;70012;0.000;0.000;2023-08-07T12:21:50;100729.81;;;20.22;45.55
80648;BME280;70012;0.000;0.000;2023-08-07T12:24:19;100714.88;;;20.18;46.69
80648;BME280;70012;0.000;0.000;2023-08-07T12:26:46;100726.31;;;20.16;46.58
80648;BME280;70012;0.000;0.000;2023-08-07T12:29:13;100729.09;;;20.16;46.04
80648;BME280;70012;0.000;0.000;2023-08-07T12:31:40;100730.53;;;20.13;46.52
80648;BME280;70012;0.000;0.000;2023-08-07T12:34:07;100734.34;;;19.90;46.27
80648;BME280;70012;0.000;0.000;2023-08-07T12:36:38;100718.63;;;19.66;46.05
80648;BME280;70012;0.000;0.000;2023-08-07T12:39:05;100737.59;;;19.78;46.73
80648;BME280;70012;0.000;0.000;2023-08-07T12:41:33;100718.94;;;19.78;47.04
80648;BME280;70012;0.000;0.000;2023-08-07T12:44:02;100713.91;;;19.80;48.46
80648;BME280;70012;0.000;0.000;2023-08-07T12:46:29;100728.06;;;19.98;47.21
80648;BME280;70012;0.000;0.000;2023-08-07T12:49:02;100714.16;;;19.84;47.54
80648;BME280;70012;0.000;0.000;2023-08-07T12:51:28;100729.03;;;19.74;47.12
80648;BME280;70012;0.000;0.000;2023-08-07T12:53:55;100737.41;;;19.55;48.08
80648;BME280;70012;0.000;0.000;2023-08-07T12:56:22;100734.31;;;19.43;48.96
80648;BME280;70012;0.000;0.000;2023-08-07T12:58:49;100725.75;;;19.39;49.00
80648;BME280;70012;0.000;0.000;2023-08-07T13:01:16;100728.63;;;19.67;49.21
80648;BME280;70012;0.000;0.000;2023-08-07T13:03:43;100723.84;;;19.54;49.30
80648;BME280;70012;0.000;0.000;2023-08-07T13:06:10;100726.31;;;19.55;50.42
80648;BME280;70012;0.000;0.000;2023-08-07T13:08:38;100733.53;;;19.56;50.94
80648;BME280;70012;0.000;0.000;2023-08-07T13:11:05;100737.63;;;19.45;51.18
80648;BME280;70012;0.000;0.000;2023-08-07T13:13:32;100739.97;;;19.51;52.03
80648;BME280;70012;0.000;0.000;2023-08-07T13:15:59;100747.03;;;19.63;51.34
80648;BME280;70012;0.000;0.000;2023-08-07T13:18:26;100747.56;;;19.79;50.79
80648;BME280;70012;0.000;0.000;2023-08-07T13:20:52;100747.94;;;19.72;49.25
80648;BME280;70012;0.000;0.000;2023-08-07T13:23:20;100745.03;;;19.96;50.57